Time;durP1;ratioP1;P1;durP2;ratioP2;P2;SDS_P1;SDS_P2;PMS_P1;PMS_P2;Temp;Humidity;BMP_temperature;BMP_pressure;BME280_temperature;BME280_humidity;BME280_pressure;Samples;Min_cycle;Max_cycle;Signal;HPM_P1;HPM_P2
2022/03/15 00:00:20;;;;;;;;;10.00;10.00;;;;;14.30;72.43;102155.13;5088731;27;45385;-74
2022/03/15 00:02:46;;;;;;;;;8.25;8.25;;;;;14.24;72.49;102134.88;5083807;27;45457;-75
2022/03/15 00:05:12;;;;;;;;;10.25;9.00;;;;;14.23;72.40;102138.28;5077251;27;45570;-74
2022/03/15 00:07:38;;;;;;;;;12.50;10.00;;;;;14.33;72.75;102143.16;5082096;27;46111;-74
2022/03/15 00:10:04;;;;;;;;;13.00;11.00;;;;;14.33;72.96;102140.56;5090280;27;45350;-76
2022/03/15 00:12:30;;;;;;;;;9.75;9.75;;;;;14.30;72.46;102126.47;5078051;27;45388;-74
2022/03/15 00:14:56;;;;;;;;;10.50;8.00;;;;;14.31;72.60;102126.56;5085700;27;45411;-75
2022/03/15 00:17:23;;;;;;;;;9.25;9.25;;;;;14.35;72.44;102131.09;5082444;27;45444;-74
2022/03/15 00:19:49;;;;;;;;;15.25;11.00;;;;;14.25;73.12;102113.22;5092823;27;45522;-74
2022/03/15 00:22:15;;;;;;;;;13.00;10.00;;;;;14.22;72.77;102115.66;5083926;27;45487;-75
2022/03/15 00:24:45;;;;;;;;;11.75;9.00;;;;;14.23;72.91;102125.28;5080356;27;45588;-75
2022/03/15 00:27:11;;;;;;;;;13.75;8.50;;;;;14.21;73.58;102132.09;5085877;27;45390;-76
2022/03/15 00:29:38;;;;;;;;;9.50;8.75;;;;;14.23;73.50;102126.16;5079822;27;45420;-76
2022/03/15 00:32:04;;;;;;;;;11.00;9.75;;;;;14.22;73.19;102133.91;5076479;27;45303;-75
2022/03/15 00:34:30;;;;;;;;;11.50;8.75;;;;;14.15;73.49;102127.47;5080771;27;45591;-75
2022/03/15 00:36:56;;;;;;;;;10.25;9.25;;;;;14.17;73.45;102131.06;5077082;27;45514;-76
2022/03/15 00:39:21;;;;;;;;;14.00;10.75;;;;;14.17;73.88;102135.34;5092994;27;45698;-75
2022/03/15 00:41:47;;;;;;;;;15.75;12.75;;;;;14.08;74.35;102117.56;5092833;27;45217;-74
2022/03/15 00:44:13;;;;;;;;;10.00;7.25;;;;;14.14;74.35;102132.63;5085268;27;45495;-74
2022/03/15 00:46:39;;;;;;;;;11.00;10.00;;;;;14.16;74.60;102129.28;5091086;27;45478;-74
2022/03/15 00:49:05;;;;;;;;;13.00;10.75;;;;;14.17;74.00;102127.53;5076262;27;45290;-74
2022/03/15 00:51:32;;;;;;;;;10.00;9.00;;;;;14.15;74.11;102126.56;5077356;27;45391;-74
2022/03/15 00:53:58;;;;;;;;;13.00;10.00;;;;;14.18;74.37;102121.53;5088690;27;45406;-75
2022/03/15 00:56:24;;;;;;;;;11.50;8.75;;;;;14.21;74.33;102126.91;5101395;27;47289;-74
2022/03/15 00:58:49;;;;;;;;;13.00;10.25;;;;;14.15;74.38;102119.66;5075875;27;45393;-74
2022/03/15 01:01:15;;;;;;;;;10.25;9.25;;;;;14.11;74.75;102114.22;5088520;27;45348;-74
2022/03/15 01:03:41;;;;;;;;;11.25;9.00;;;;;14.14;74.94;102114.38;5072979;27;45253;-75
2022/03/15 01:06:06;;;;;;;;;10.75;9.50;;;;;14.13;75.45;102112.59;5080047;27;45842;-74
2022/03/15 01:08:32;;;;;;;;;10.75;8.25;;;;;14.13;75.17;102103.06;5079682;27;45456;-74
2022/03/15 01:11:00;;;;;;;;;13.00;10.00;;;;;14.18;75.20;102105.91;5079465;27;45262;-74
2022/03/15 01:13:25;;;;;;;;;15.25;10.00;;;;;14.15;74.61;102096.22;5080112;27;45540;-74
2022/03/15 01:15:51;;;;;;;;;12.75;11.75;;;;;14.06;74.85;102091.44;5089713;27;46467;-74
2022/03/15 01:18:17;;;;;;;;;10.00;10.00;;;;;14.06;75.07;102085.34;5097758;27;45510;-74
2022/03/15 01:20:44;;;;;;;;;9.00;9.00;;;;;14.04;75.51;102081.75;5085773;27;45461;-74
2022/03/15 01:23:10;;;;;;;;;11.50;9.00;;;;;14.00;75.43;102082.41;5100378;27;45510;-75
2022/03/15 01:25:37;;;;;;;;;9.00;8.50;;;;;13.91;76.01;102070.72;5097936;27;45444;-74
2022/03/15 01:28:04;;;;;;;;;11.00;11.00;;;;;13.91;76.13;102080.25;5091368;27;45692;-74
2022/03/15 01:30:30;;;;;;;;;9.50;9.50;;;;;13.81;76.59;102080.59;5079667;28;45254;-74
2022/03/15 01:32:56;;;;;;;;;9.50;9.50;;;;;13.87;76.61;102084.41;5080750;27;45483;-75
2022/03/15 01:35:22;;;;;;;;;10.50;9.50;;;;;13.76;76.67;102064.72;5090161;27;45924;-74
2022/03/15 01:37:48;;;;;;;;;11.00;10.00;;;;;13.82;77.32;102072.84;5078886;28;45445;-74
2022/03/15 01:40:13;;;;;;;;;14.75;10.25;;;;;13.79;77.10;102064.88;5079344;27;45402;-75
2022/03/15 01:42:40;;;;;;;;;13.25;10.75;;;;;13.79;77.31;102059.66;5079833;27;45330;-75
2022/03/15 01:45:06;;;;;;;;;13.25;11.00;;;;;13.84;77.17;102067.72;5078663;28;45972;-75
2022/03/15 01:47:33;;;;;;;;;12.50;11.00;;;;;13.78;77.37;102058.78;5078972;27;45823;-74
2022/03/15 01:49:58;;;;;;;;;10.00;9.25;;;;;13.73;77.27;102046.34;5079270;27;45405;-75
2022/03/15 01:52:24;;;;;;;;;11.00;9.25;;;;;13.79;77.69;102054.44;5094047;27;45434;-75
2022/03/15 01:54:50;;;;;;;;;7.75;7.75;;;;;13.68;77.61;102035.69;5078887;27;46001;-74
2022/03/15 01:57:16;;;;;;;;;11.25;9.75;;;;;13.73;77.81;102034.22;5086845;27;45893;-74
2022/03/15 01:59:42;;;;;;;;;9.25;8.00;;;;;13.77;77.61;102036.16;5086352;27;45420;-74
2022/03/15 02:02:09;;;;;;;;;8.25;8.25;;;;;13.69;77.67;102023.56;5084296;27;46305;-74
2022/03/15 02:04:36;;;;;;;;;11.00;7.75;;;;;13.73;78.06;102029.00;5082283;27;45984;-75
2022/03/15 02:07:13;;;;;;;;;16.00;12.25;;;;;13.80;77.92;102027.63;5078680;27;45218;-74
2022/03/15 02:09:40;;;;;;;;;8.50;8.00;;;;;13.84;78.08;102019.16;5087107;27;45462;-74
2022/03/15 02:12:06;;;;;;;;;10.25;8.50;;;;;13.73;77.75;102002.09;5091323;27;45559;-74
2022/03/15 02:14:32;;;;;;;;;11.00;8.50;;;;;13.79;77.75;102015.41;5082280;27;45546;-75
2022/03/15 02:16:58;;;;;;;;;10.50;10.50;;;;;13.82;77.68;102012.09;5083088;27;46193;-73
2022/03/15 02:19:27;;;;;;;;;9.50;9.25;;;;;13.85;77.97;102015.75;5086137;27;45582;-73
2022/03/15 02:21:53;;;;;;;;;9.00;8.50;;;;;13.88;77.71;102018.47;5099160;27;45568;-73
2022/03/15 02:24:19;;;;;;;;;10.50;8.50;;;;;13.88;77.87;102008.06;5058204;28;45316;-73
2022/03/15 02:26:46;;;;;;;;;10.00;8.00;;;;;13.92;77.47;102004.81;5078303;27;45461;-74
2022/03/15 02:29:11;;;;;;;;;11.25;9.00;;;;;13.90;77.59;102006.44;5087841;27;45410;-73
2022/03/15 02:31:37;;;;;;;;;10.75;9.50;;;;;13.89;77.86;102003.78;5095970;27;45302;-75
2022/03/15 02:34:02;;;;;;;;;8.00;8.00;;;;;13.87;77.96;102002.78;5080967;27;45826;-73
2022/03/15 02:36:28;;;;;;;;;9.00;9.00;;;;;13.82;78.29;101986.06;5087774;27;45460;-73
2022/03/15 02:38:54;;;;;;;;;8.00;7.25;;;;;13.88;78.90;101995.03;5078330;27;45394;-73
2022/03/15 02:41:20;;;;;;;;;11.25;8.25;;;;;13.81;78.72;101977.34;5078700;28;45440;-75
2022/03/15 02:43:45;;;;;;;;;12.75;9.25;;;;;13.92;79.22;101993.53;5077885;28;45936;-74
2022/03/15 02:46:11;;;;;;;;;10.00;8.00;;;;;13.88;79.40;101983.75;5078587;27;45696;-76
2022/03/15 02:48:37;;;;;;;;;6.25;5.75;;;;;13.92;79.51;101991.78;5098751;27;45269;-75
2022/03/15 02:51:10;;;;;;;;;13.00;10.25;;;;;13.89;80.12;101977.72;5093764;27;45294;-75
2022/03/15 02:53:37;;;;;;;;;10.75;8.75;;;;;13.85;80.38;101981.91;5079733;27;45427;-74
2022/03/15 02:56:10;;;;;;;;;8.25;8.25;;;;;13.88;80.97;101965.53;5095574;27;45223;-75
2022/03/15 02:58:36;;;;;;;;;8.75;8.00;;;;;13.86;81.14;101961.94;5088154;27;45698;-74
2022/03/15 03:01:03;;;;;;;;;9.00;8.50;;;;;13.91;82.45;101961.38;5078280;27;45189;-74
2022/03/15 03:03:29;;;;;;;;;8.00;6.00;;;;;13.89;82.82;101951.69;5077845;27;46005;-74
2022/03/15 03:05:55;;;;;;;;;7.75;7.00;;;;;13.97;83.93;101950.34;5077594;27;45426;-75
2022/03/15 03:08:27;;;;;;;;;9.00;6.00;;;;;14.04;85.55;101941.13;5081755;27;45360;-75
2022/03/15 03:10:54;;;;;;;;;8.00;8.00;;;;;14.07;86.42;101943.91;5098146;27;45306;-75
2022/03/15 03:13:26;;;;;;;;;7.00;6.00;;;;;14.11;86.58;101950.16;5082764;27;45563;-73
2022/03/15 03:15:58;;;;;;;;;7.00;6.00;;;;;14.12;87.43;101950.22;5077646;27;45197;-74
2022/03/15 03:18:34;;;;;;;;;5.50;5.50;;;;;14.18;88.04;101953.13;5077830;28;45287;-74
2022/03/15 03:21:05;;;;;;;;;7.25;7.25;;;;;14.22;89.24;101949.84;5092896;27;45383;-74
2022/03/15 03:23:33;;;;;;;;;8.75;7.25;;;;;14.31;89.15;101943.28;5073343;27;45431;-74
2022/03/15 03:25:59;;;;;;;;;5.25;5.25;;;;;14.30;89.73;101942.41;5076604;27;45811;-73
2022/03/15 03:28:27;;;;;;;;;8.00;6.50;;;;;14.28;90.99;101949.25;5078871;27;45405;-73
2022/03/15 03:30:53;;;;;;;;;9.00;8.00;;;;;14.26;92.13;101950.00;5077544;27;45389;-75
2022/03/15 03:33:19;;;;;;;;;7.75;7.50;;;;;14.26;92.11;101948.28;5077495;27;45975;-75
2022/03/15 03:35:49;;;;;;;;;7.75;7.00;;;;;14.25;93.02;101954.31;5078124;27;45568;-75
2022/03/15 03:38:16;;;;;;;;;7.00;7.00;;;;;14.21;94.68;101957.59;5076922;27;45405;-75
2022/03/15 03:40:42;;;;;;;;;7.50;6.25;;;;;14.17;97.92;101958.25;5089308;27;45918;-74
2022/03/15 03:43:07;;;;;;;;;6.00;5.00;;;;;14.15;99.06;101957.28;5080777;27;45443;-76
2022/03/15 03:45:34;;;;;;;;;8.50;7.50;;;;;14.13;100.00;101953.72;5097417;27;45358;-75
2022/03/15 03:48:00;;;;;;;;;7.00;7.00;;;;;14.12;100.00;101950.22;5096970;27;45522;-77
2022/03/15 03:50:26;;;;;;;;;7.25;7.25;;;;;14.09;100.00;101953.56;5096700;27;45417;-77
2022/03/15 03:52:52;;;;;;;;;8.50;7.75;;;;;14.11;100.00;101955.34;5086108;27;46574;-75
2022/03/15 03:55:18;;;;;;;;;7.00;5.50;;;;;14.16;100.00;101953.84;5092109;27;45306;-76
2022/03/15 03:57:43;;;;;;;;;10.00;6.25;;;;;14.16;100.00;101944.34;5088540;27;45368;-76
2022/03/15 04:00:10;;;;;;;;;7.00;7.00;;;;;14.20;100.00;101941.06;5076360;27;45330;-77
2022/03/15 04:02:35;;;;;;;;;9.75;7.00;;;;;14.19;100.00;101939.28;5087066;27;45657;-75
2022/03/15 04:05:01;;;;;;;;;9.00;8.00;;;;;14.13;100.00;101946.78;5084194;27;45453;-76
2022/03/15 04:07:29;;;;;;;;;10.75;9.00;;;;;14.07;100.00;101936.09;5078207;27;45721;-77
2022/03/15 04:09:55;;;;;;;;;9.25;8.00;;;;;14.04;100.00;101942.03;5097339;27;45349;-77
2022/03/15 04:12:22;;;;;;;;;8.00;8.00;;;;;14.06;100.00;101939.50;5095501;27;46153;-77
2022/03/15 04:14:48;;;;;;;;;8.50;7.00;;;;;14.03;100.00;101928.94;5077912;27;45921;-76
2022/03/15 04:17:15;;;;;;;;;7.00;7.00;;;;;14.08;100.00;101937.88;5076884;27;45353;-74
2022/03/15 04:19:41;;;;;;;;;10.00;8.00;;;;;14.09;100.00;101937.06;5091100;27;45503;-76
2022/03/15 04:22:07;;;;;;;;;10.75;9.00;;;;;14.00;100.00;101921.88;5076284;27;45481;-77
2022/03/15 04:24:32;;;;;;;;;8.00;8.00;;;;;13.95;100.00;101918.13;5076200;27;45234;-76
2022/03/15 04:26:59;;;;;;;;;9.50;9.25;;;;;14.03;100.00;101937.66;5076167;27;45170;-76
2022/03/15 04:29:26;;;;;;;;;10.50;9.25;;;;;14.02;100.00;101933.28;5079160;27;45502;-74
2022/03/15 04:31:52;;;;;;;;;10.50;9.00;;;;;14.03;100.00;101927.25;5096737;27;45464;-74
2022/03/15 04:34:18;;;;;;;;;11.25;8.50;;;;;14.01;100.00;101930.56;5090327;27;45267;-74
2022/03/15 04:36:45;;;;;;;;;10.25;9.00;;;;;13.99;100.00;101916.56;5076606;27;45363;-74
2022/03/15 04:39:11;;;;;;;;;10.75;9.50;;;;;14.07;100.00;101918.75;5076968;27;45358;-74
2022/03/15 04:41:38;;;;;;;;;9.75;9.75;;;;;14.06;100.00;101914.34;5092421;27;45376;-73
2022/03/15 04:44:04;;;;;;;;;9.00;8.00;;;;;14.13;100.00;101909.44;5087155;27;45812;-72
2022/03/15 04:46:30;;;;;;;;;11.50;10.25;;;;;14.16;100.00;101906.97;5077748;27;45223;-75
2022/03/15 04:48:56;;;;;;;;;9.75;9.00;;;;;14.15;100.00;101913.00;5081663;27;45607;-75
2022/03/15 04:51:23;;;;;;;;;8.50;8.50;;;;;14.13;100.00;101905.13;5094878;27;45515;-74
2022/03/15 04:53:49;;;;;;;;;10.00;10.00;;;;;14.19;100.00;101910.66;5080904;27;45361;-75
2022/03/15 04:56:15;;;;;;;;;10.00;9.25;;;;;14.22;100.00;101913.38;5088891;27;46815;-75
2022/03/15 04:58:41;;;;;;;;;9.75;9.75;;;;;14.13;100.00;101893.81;5077782;27;45243;-75
2022/03/15 05:01:07;;;;;;;;;9.25;9.00;;;;;14.15;100.00;101911.31;5089912;27;45449;-76
2022/03/15 05:03:35;;;;;;;;;12.00;9.50;;;;;14.17;100.00;101908.75;5082150;27;45292;-75
2022/03/15 05:06:01;;;;;;;;;10.50;10.50;;;;;14.15;100.00;101908.69;5086689;27;45469;-77
2022/03/15 05:08:27;;;;;;;;;12.75;11.50;;;;;14.18;100.00;101910.56;5095234;27;45480;-76
2022/03/15 05:11:07;;;;;;;;;12.25;12.00;;;;;14.06;100.00;101892.63;5073190;27;46152;-77
2022/03/15 05:13:45;;;;;;;;;11.50;10.25;;;;;14.17;100.00;101907.06;5082106;27;45555;-75
2022/03/15 05:16:16;;;;;;;;;12.75;12.75;;;;;14.19;100.00;101904.53;5076488;27;45681;-76
2022/03/15 05:18:45;;;;;;;;;14.75;13.50;;;;;14.11;100.00;101887.66;5076530;27;45219;-76
2022/03/15 05:21:14;;;;;;;;;13.50;12.50;;;;;14.10;100.00;101899.75;5076035;27;45498;-76
2022/03/15 05:23:41;;;;;;;;;13.00;11.00;;;;;14.14;100.00;101906.91;5074555;28;45801;-76
2022/03/15 05:26:07;;;;;;;;;12.50;11.50;;;;;14.09;100.00;101906.69;5075986;27;45765;-76
2022/03/15 05:28:32;;;;;;;;;16.75;12.00;;;;;14.09;100.00;101904.09;5076300;27;45206;-76
2022/03/15 05:30:58;;;;;;;;;14.50;12.25;;;;;14.07;100.00;101910.94;5073898;28;45864;-76
2022/03/15 05:33:24;;;;;;;;;12.75;10.75;;;;;14.07;100.00;101907.44;5075491;28;45372;-76
2022/03/15 05:35:50;;;;;;;;;16.00;13.00;;;;;14.11;100.00;101908.47;5079334;27;45353;-74
2022/03/15 05:38:16;;;;;;;;;16.25;15.00;;;;;14.11;100.00;101911.97;5077988;27;45480;-74
2022/03/15 05:40:42;;;;;;;;;13.00;12.00;;;;;14.08;100.00;101917.06;5077024;27;46397;-74
2022/03/15 05:43:07;;;;;;;;;13.50;12.00;;;;;14.10;100.00;101915.38;5074721;28;46032;-74
2022/03/15 05:45:34;;;;;;;;;12.25;12.25;;;;;14.09;100.00;101911.91;5075538;27;45366;-75
2022/03/15 05:48:00;;;;;;;;;13.75;13.00;;;;;14.11;100.00;101916.28;5075588;27;45381;-73
2022/03/15 05:50:25;;;;;;;;;11.25;11.00;;;;;14.08;100.00;101909.22;5079134;27;45397;-76
2022/03/15 05:52:51;;;;;;;;;12.00;10.00;;;;;14.07;100.00;101912.66;5078588;28;45242;-73
2022/03/15 05:55:17;;;;;;;;;14.75;14.75;;;;;14.08;100.00;101911.84;5079294;28;45409;-74
2022/03/15 05:57:43;;;;;;;;;11.00;11.00;;;;;14.13;100.00;101915.53;5079162;27;45595;-73
2022/03/15 06:00:12;;;;;;;;;12.25;12.25;;;;;14.01;100.00;101895.03;5094246;27;46339;-74
2022/03/15 06:02:39;;;;;;;;;17.00;13.75;;;;;14.09;100.00;101908.41;5082913;27;45841;-74
2022/03/15 06:05:05;;;;;;;;;16.75;13.50;;;;;14.06;100.00;101919.56;5077480;27;45348;-74
2022/03/15 06:07:31;;;;;;;;;15.75;13.75;;;;;14.05;100.00;101916.88;5080147;27;45505;-74
2022/03/15 06:09:57;;;;;;;;;14.75;14.00;;;;;14.06;100.00;101916.06;5079532;27;45793;-74
2022/03/15 06:12:25;;;;;;;;;15.50;14.00;;;;;14.06;100.00;101922.16;5089591;27;45832;-74
2022/03/15 06:14:52;;;;;;;;;14.50;14.50;;;;;14.04;100.00;101925.53;5075682;27;45621;-74
2022/03/15 06:17:18;;;;;;;;;14.25;14.25;;;;;13.99;100.00;101920.09;5075801;28;45302;-74
2022/03/15 06:19:43;;;;;;;;;18.75;15.00;;;;;14.03;100.00;101926.34;5078124;27;45341;-74
2022/03/15 06:22:09;;;;;;;;;16.50;15.00;;;;;13.97;100.00;101913.03;5077777;27;45330;-74
2022/03/15 06:24:36;;;;;;;;;14.75;14.00;;;;;13.96;100.00;101930.34;5077232;27;45588;-76
2022/03/15 06:27:03;;;;;;;;;17.00;15.75;;;;;13.94;100.00;101929.38;5076714;27;45934;-75
2022/03/15 06:29:30;;;;;;;;;16.50;14.50;;;;;13.97;100.00;101928.66;5076200;27;45759;-75
2022/03/15 06:31:56;;;;;;;;;18.00;18.00;;;;;13.93;100.00;101917.16;5076839;27;45987;-73
2022/03/15 06:34:23;;;;;;;;;17.75;15.00;;;;;13.93;100.00;101922.38;5079644;27;45420;-75
2022/03/15 06:36:49;;;;;;;;;15.75;15.00;;;;;13.91;100.00;101913.63;5096776;27;45513;-74
2022/03/15 06:39:15;;;;;;;;;14.50;14.50;;;;;13.92;100.00;101918.91;5096884;27;45893;-74
2022/03/15 06:41:43;;;;;;;;;15.25;13.50;;;;;13.88;100.00;101923.88;5078671;27;45396;-73
2022/03/15 06:44:09;;;;;;;;;16.50;14.75;;;;;13.87;100.00;101922.09;5081557;27;45487;-74
2022/03/15 06:46:35;;;;;;;;;16.75;14.00;;;;;13.86;100.00;101920.31;5078527;27;45525;-73
2022/03/15 06:49:02;;;;;;;;;16.75;15.00;;;;;13.86;100.00;101918.59;5077164;27;45961;-73
2022/03/15 06:51:28;;;;;;;;;15.50;15.00;;;;;13.90;100.00;101927.47;5076518;27;45928;-74
2022/03/15 06:53:54;;;;;;;;;15.50;13.50;;;;;13.89;100.00;101926.53;5076994;28;45382;-75
2022/03/15 06:56:20;;;;;;;;;18.50;16.25;;;;;13.89;100.00;101916.13;5078517;27;45452;-74
2022/03/15 06:58:46;;;;;;;;;20.75;18.25;;;;;13.84;100.00;101902.00;5084362;27;45648;-80
2022/03/15 07:01:12;;;;;;;;;16.25;15.25;;;;;13.80;100.00;101894.84;5091447;27;45392;-77
2022/03/15 07:03:38;;;;;;;;;21.50;17.25;;;;;13.89;100.00;101913.53;5079117;27;45653;-80
2022/03/15 07:06:04;;;;;;;;;16.50;14.75;;;;;13.87;100.00;101914.28;5078583;27;45465;-79
2022/03/15 07:08:30;;;;;;;;;18.00;16.75;;;;;13.83;100.00;101907.13;5077978;28;46527;-82
2022/03/15 07:10:56;;;;;;;;;18.00;15.75;;;;;13.84;100.00;101911.53;5077930;27;45912;-81
2022/03/15 07:13:22;;;;;;;;;19.00;16.75;;;;;13.81;100.00;101919.19;5077730;27;45442;-81
2022/03/15 07:15:48;;;;;;;;;18.25;17.00;;;;;13.79;100.00;101916.50;5078345;27;45314;-82
2022/03/15 07:18:19;;;;;;;;;19.00;19.00;;;;;13.69;100.00;101909.97;5076751;27;48025;-86
2022/03/15 07:20:45;;;;;;;;;19.00;17.75;;;;;13.70;100.00;101923.84;5075436;27;45760;-76
2022/03/15 07:23:11;;;;;;;;;18.25;15.75;;;;;13.71;100.00;101923.94;5076496;28;45434;-77
2022/03/15 07:25:37;;;;;;;;;22.25;20.25;;;;;13.73;100.00;101924.00;5077704;27;45577;-76
2022/03/15 07:28:03;;;;;;;;;20.00;18.50;;;;;13.76;100.00;101916.38;5076361;28;46057;-74
2022/03/15 07:30:28;;;;;;;;;21.50;18.50;;;;;13.84;100.00;101922.84;5076378;27;45425;-74
2022/03/15 07:32:54;;;;;;;;;25.00;20.75;;;;;13.85;100.00;101923.72;5076431;27;45436;-75
2022/03/15 07:35:20;;;;;;;;;16.75;16.75;;;;;13.90;100.00;101927.47;5076335;27;45484;-76
2022/03/15 07:37:55;;;;;;;;;18.00;18.00;;;;;13.94;100.00;101937.19;5074765;28;46578;-74
2022/03/15 07:40:21;;;;;;;;;20.75;19.00;;;;;13.95;100.00;101928.56;5076953;27;45990;-73
2022/03/15 07:42:48;;;;;;;;;19.00;15.75;;;;;13.95;100.00;101919.88;5077195;27;45870;-73
2022/03/15 07:45:14;;;;;;;;;22.00;17.50;;;;;13.96;100.00;101911.25;5076114;28;45397;-74
2022/03/15 07:47:39;;;;;;;;;20.50;18.00;;;;;13.95;100.00;101906.84;5088894;27;46726;-73
2022/03/15 07:50:06;;;;;;;;;19.00;17.00;;;;;14.00;100.00;101915.75;5097137;27;45316;-74
2022/03/15 07:52:31;;;;;;;;;21.75;19.00;;;;;13.97;100.00;101919.13;5097093;27;45455;-74
2022/03/15 07:54:57;;;;;;;;;22.00;19.50;;;;;13.98;100.00;101912.22;5077479;27;45637;-74
2022/03/15 07:57:23;;;;;;;;;19.75;18.00;;;;;13.99;100.00;101901.88;5075948;27;45944;-74
2022/03/15 07:59:48;;;;;;;;;21.50;18.75;;;;;13.90;100.00;101896.22;5075946;27;45529;-78
2022/03/15 08:02:15;;;;;;;;;24.75;22.00;;;;;13.87;100.00;101904.78;5075099;27;45404;-75
2022/03/15 08:04:42;;;;;;;;;20.25;20.00;;;;;13.98;100.00;101918.31;5075680;27;45607;-74
2022/03/15 08:07:08;;;;;;;;;18.75;18.75;;;;;13.95;100.00;101894.72;5075531;28;45494;-72
2022/03/15 08:09:34;;;;;;;;;20.25;20.00;;;;;14.00;100.00;101903.66;5076471;27;45329;-72
2022/03/15 08:12:00;;;;;;;;;20.50;19.00;;;;;14.03;100.00;101909.03;5076131;27;45543;-73
2022/03/15 08:14:27;;;;;;;;;24.75;21.50;;;;;14.02;100.00;101912.44;5069712;27;45447;-73
2022/03/15 08:16:53;;;;;;;;;22.50;22.50;;;;;14.03;100.00;101902.91;5073136;28;47023;-73
2022/03/15 08:19:19;;;;;;;;;29.50;28.00;;;;;14.06;100.00;101903.94;5073485;27;45420;-73
2022/03/15 08:21:44;;;;;;;;;22.75;21.75;;;;;14.05;100.00;101909.97;5075003;27;45570;-73
2022/03/15 08:24:14;;;;;;;;;29.00;26.50;;;;;13.99;100.00;101888.84;5072652;27;45400;-73
2022/03/15 08:26:40;;;;;;;;;26.50;25.00;;;;;14.01;100.00;101900.22;5074085;27;45308;-72
2022/03/15 08:29:06;;;;;;;;;27.25;24.75;;;;;14.03;100.00;101909.03;5065762;27;46319;-72
2022/03/15 08:31:32;;;;;;;;;23.50;22.50;;;;;13.99;100.00;101920.09;5069344;27;45678;-72
2022/03/15 08:33:58;;;;;;;;;22.50;21.50;;;;;13.96;100.00;101909.53;5065888;27;45686;-72
2022/03/15 08:36:24;;;;;;;;;26.25;24.25;;;;;14.03;100.00;101908.09;5069669;27;45426;-72
2022/03/15 08:38:50;;;;;;;;;25.25;23.00;;;;;14.04;100.00;101904.69;5074075;27;45476;-73
2022/03/15 08:41:16;;;;;;;;;21.25;19.25;;;;;14.07;100.00;101907.44;5073113;27;45527;-73
2022/03/15 08:43:42;;;;;;;;;21.75;21.00;;;;;14.04;100.00;101904.69;5096316;27;45336;-73
2022/03/15 08:46:08;;;;;;;;;34.75;30.00;;;;;14.05;100.00;101903.88;5073232;27;45452;-72
2022/03/15 08:48:34;;;;;;;;;33.50;31.00;;;;;14.08;100.00;101915.31;5060217;28;45437;-73
2022/03/15 08:51:00;;;;;;;;;18.25;16.75;;;;;14.11;100.00;101925.00;5058067;28;45496;-72
2022/03/15 08:53:27;;;;;;;;;28.00;25.00;;;;;14.09;100.00;101921.44;5073882;27;45448;-73
2022/03/15 08:55:53;;;;;;;;;26.75;23.50;;;;;14.11;100.00;101926.72;5073414;28;45568;-74
2022/03/15 08:58:18;;;;;;;;;28.50;27.00;;;;;14.02;100.00;101920.25;5074543;28;45838;-73
2022/03/15 09:00:44;;;;;;;;;29.50;27.25;;;;;14.02;100.00;101915.03;5075497;27;45367;-73
2022/03/15 09:03:10;;;;;;;;;28.75;26.50;;;;;14.01;100.00;101921.06;5072740;27;45606;-72
2022/03/15 09:05:36;;;;;;;;;27.00;24.00;;;;;13.95;100.00;101925.94;5075371;28;46199;-76
2022/03/15 09:08:02;;;;;;;;;26.50;22.50;;;;;13.91;100.00;101947.47;5075016;28;45885;-75
2022/03/15 09:10:28;;;;;;;;;25.75;24.00;;;;;13.90;100.00;101945.69;5074576;27;45188;-73
2022/03/15 09:12:53;;;;;;;;;32.75;24.25;;;;;13.91;100.00;101943.13;5075472;27;45642;-71
2022/03/15 09:15:20;;;;;;;;;25.25;25.00;;;;;13.95;100.00;101935.50;5074039;28;45843;-72
2022/03/15 09:17:46;;;;;;;;;29.00;26.00;;;;;13.96;100.00;101937.28;5072583;27;45903;-72
2022/03/15 09:20:12;;;;;;;;;28.00;26.00;;;;;13.91;100.00;101943.13;5073146;28;45510;-72
2022/03/15 09:22:38;;;;;;;;;27.75;27.75;;;;;13.90;100.00;101930.06;5076329;27;45308;-72
2022/03/15 09:25:05;;;;;;;;;30.75;28.25;;;;;13.94;100.00;101926.78;5080137;27;45781;-72
2022/03/15 09:27:31;;;;;;;;;29.00;28.25;;;;;13.98;100.00;101927.84;5079925;27;45508;-73
2022/03/15 09:29:58;;;;;;;;;30.75;30.50;;;;;14.05;100.00;101937.72;5078320;28;45251;-72
2022/03/15 09:32:24;;;;;;;;;27.00;24.25;;;;;14.05;100.00;101936.00;5078471;27;45589;-72
2022/03/15 09:34:50;;;;;;;;;29.50;27.00;;;;;14.04;100.00;101925.53;5077515;28;46608;-72
2022/03/15 09:37:16;;;;;;;;;32.75;28.00;;;;;14.09;100.00;101924.91;5078794;27;45378;-71
2022/03/15 09:39:41;;;;;;;;;31.75;28.25;;;;;14.09;100.00;101914.50;5077891;27;45367;-72
2022/03/15 09:42:10;;;;;;;;;36.00;31.75;;;;;14.11;100.00;101914.56;5078307;27;45646;-72
2022/03/15 09:44:40;;;;;;;;;32.25;28.75;;;;;14.13;100.00;101914.66;5078296;27;46205;-72
2022/03/15 09:47:07;;;;;;;;;34.00;28.50;;;;;14.16;100.00;101910.50;5076655;27;46376;-72
2022/03/15 09:49:34;;;;;;;;;30.25;30.25;;;;;14.18;100.00;101911.47;5094499;27;45419;-72
2022/03/15 09:52:01;;;;;;;;;36.00;31.25;;;;;14.17;100.00;101903.56;5079013;27;45345;-72
2022/03/15 09:54:30;;;;;;;;;34.00;31.00;;;;;14.19;100.00;101913.25;5078226;27;45410;-72
2022/03/15 09:56:57;;;;;;;;;38.50;32.00;;;;;14.21;100.00;101902.88;5077453;27;45275;-71
2022/03/15 09:59:26;;;;;;;;;35.75;32.75;;;;;14.23;100.00;101894.31;5078536;27;45374;-72
2022/03/15 10:01:54;;;;;;;;;33.75;30.25;;;;;14.19;100.00;101900.22;5079052;27;45611;-71
2022/03/15 10:04:22;;;;;;;;;34.00;26.25;;;;;14.19;100.00;101896.72;5078635;27;45420;-72
2022/03/15 10:06:48;;;;;;;;;35.25;31.00;;;;;14.19;100.00;101899.31;5077973;28;45943;-72
2022/03/15 10:09:14;;;;;;;;;26.75;23.25;;;;;14.18;100.00;101898.44;5078296;27;45345;-71
2022/03/15 10:11:41;;;;;;;;;31.25;28.00;;;;;14.11;100.00;101896.34;5078991;27;45549;-76
2022/03/15 10:14:09;;;;;;;;;28.25;27.50;;;;;14.15;100.00;101902.56;5078899;27;45527;-73
2022/03/15 10:16:41;;;;;;;;;30.00;27.00;;;;;14.15;100.00;101905.19;5090166;27;45337;-73
2022/03/15 10:19:09;;;;;;;;;34.25;31.25;;;;;14.11;100.00;101904.16;5078408;27;45358;-76
2022/03/15 10:21:40;;;;;;;;;30.00;29.00;;;;;14.09;100.00;101903.22;5093349;27;45333;-73
2022/03/15 10:24:09;;;;;;;;;37.00;32.25;;;;;14.06;100.00;101890.03;5097389;27;45271;-77
2022/03/15 10:26:39;;;;;;;;;39.25;32.00;;;;;14.13;100.00;101893.81;5098225;27;45522;-73
2022/03/15 10:29:06;;;;;;;;;36.50;30.50;;;;;14.13;100.00;101897.31;5098700;27;45335;-72
2022/03/15 10:31:33;;;;;;;;;34.50;30.75;;;;;14.08;100.00;101894.50;5083552;27;45338;-73
2022/03/15 10:34:01;;;;;;;;;31.50;28.75;;;;;14.08;100.00;101896.22;5077821;27;45451;-76
2022/03/15 10:36:36;;;;;;;;;34.00;30.00;;;;;14.04;100.00;101892.53;5075719;28;45474;-72
2022/03/15 10:39:03;;;;;;;;;36.25;32.00;;;;;14.02;100.00;101888.09;5077560;27;45452;-72
2022/03/15 10:41:28;;;;;;;;;33.50;30.25;;;;;14.04;100.00;101886.47;5078505;27;45475;-72
2022/03/15 10:43:57;;;;;;;;;34.75;31.00;;;;;14.06;100.00;101890.03;5084341;27;45519;-72
2022/03/15 10:46:25;;;;;;;;;30.50;26.50;;;;;14.04;100.00;101870.84;5078565;27;45323;-79
2022/03/15 10:49:03;;;;;;;;;34.75;32.00;;;;;14.09;100.00;101880.66;5090234;27;45341;-73
2022/03/15 10:51:29;;;;;;;;;31.50;29.25;;;;;14.04;100.00;101873.44;5057932;28;45414;-78
2022/03/15 10:54:02;;;;;;;;;31.00;29.25;;;;;14.04;100.00;101878.66;5079545;27;47685;-76
2022/03/15 10:56:28;;;;;;;;;31.50;29.50;;;;;14.05;100.00;101878.72;5077729;27;45317;-75
2022/03/15 10:58:59;;;;;;;;;36.00;30.00;;;;;14.04;100.00;101887.34;5077493;27;45318;-75
2022/03/15 11:01:28;;;;;;;;;32.25;29.75;;;;;14.04;100.00;101891.66;5078385;27;45353;-75
2022/03/15 11:03:57;;;;;;;;;31.50;28.25;;;;;14.00;100.00;101887.13;5077388;27;46330;-74
2022/03/15 11:06:41;;;;;;;;;28.50;27.25;;;;;13.96;100.00;101886.09;5079016;27;46843;-74